createdAt,value
2017-08-17T00:00:25.777Z,15.04
2017-08-17T00:01:26.442Z,15.03
2017-08-17T00:02:27.059Z,15.09
2017-08-17T00:03:27.681Z,15.10
2017-08-17T00:04:28.295Z,15.10
2017-08-17T00:05:28.944Z,15.11
2017-08-17T00:06:29.561Z,15.11
2017-08-17T00:07:30.176Z,15.07
2017-08-17T00:08:30.792Z,15.10
2017-08-17T00:09:31.414Z,15.11
2017-08-17T00:10:32.031Z,15.06
2017-08-17T00:11:32.647Z,15.07
2017-08-17T00:12:33.263Z,15.03
2017-08-17T00:13:33.879Z,15.02
2017-08-17T00:14:34.496Z,15.04
2017-08-17T00:15:35.113Z,15.04
2017-08-17T00:16:35.729Z,15.03
2017-08-17T00:17:36.345Z,15.06
2017-08-17T00:18:36.967Z,15.02
2017-08-17T00:19:37.579Z,15.04
2017-08-17T00:20:38.195Z,14.96
2017-08-17T00:21:38.845Z,14.89
2017-08-17T00:22:39.461Z,14.99
2017-08-17T00:23:40.089Z,14.97
2017-08-17T00:24:40.709Z,15.03
2017-08-17T00:25:41.323Z,14.91
2017-08-17T00:26:42.241Z,14.91
2017-08-17T00:27:42.861Z,14.94
2017-08-17T00:28:43.475Z,14.91
2017-08-17T00:29:44.090Z,14.89
2017-08-17T00:30:44.706Z,14.84
2017-08-17T00:31:45.356Z,14.82
2017-08-17T00:32:45.970Z,14.89
2017-08-17T00:33:46.585Z,14.85
2017-08-17T00:34:47.203Z,14.78
2017-08-17T00:35:47.826Z,14.79
2017-08-17T00:36:48.438Z,14.79
2017-08-17T00:37:49.055Z,14.78
2017-08-17T00:38:49.670Z,14.86
2017-08-17T00:39:50.301Z,14.84
2017-08-17T00:40:50.905Z,14.82
2017-08-17T00:41:51.580Z,14.78
2017-08-17T00:42:52.188Z,14.79
2017-08-17T00:43:52.838Z,14.81
2017-08-17T00:44:53.454Z,14.73
2017-08-17T00:45:54.072Z,14.82
2017-08-17T00:46:54.691Z,14.89
2017-08-17T00:47:55.309Z,14.82
2017-08-17T00:48:55.923Z,14.89
2017-08-17T00:49:56.545Z,14.92
2017-08-17T00:50:57.160Z,14.96
2017-08-17T00:51:57.776Z,14.89
2017-08-17T00:52:58.392Z,14.85
2017-08-17T00:53:59.008Z,14.86
2017-08-17T00:54:59.623Z,14.84
2017-08-17T00:56:00.239Z,14.85
2017-08-17T00:57:00.906Z,14.82
2017-08-17T00:58:01.528Z,14.85
2017-08-17T00:59:02.178Z,14.79
2017-08-17T01:00:02.805Z,14.79
2017-08-17T01:01:03.411Z,14.81
2017-08-17T01:02:04.025Z,14.82
2017-08-17T01:03:04.641Z,14.85
2017-08-17T01:04:05.258Z,14.89
2017-08-17T01:05:05.881Z,14.91
2017-08-17T01:06:06.498Z,14.91
2017-08-17T01:07:07.112Z,14.88
2017-08-17T01:08:07.734Z,14.82
2017-08-17T01:09:08.347Z,14.86
2017-08-17T01:10:08.970Z,14.88
2017-08-17T01:11:09.584Z,14.88
2017-08-17T01:12:10.198Z,14.84
2017-08-17T01:13:10.819Z,14.81
2017-08-17T01:14:11.438Z,14.88
2017-08-17T01:15:12.050Z,14.78
2017-08-17T01:16:12.666Z,14.85
2017-08-17T01:17:13.615Z,14.82
2017-08-17T01:18:14.236Z,14.82
2017-08-17T01:19:14.851Z,14.79
2017-08-17T01:20:15.468Z,14.69
2017-08-17T01:21:16.090Z,14.70
2017-08-17T01:22:16.708Z,14.66
2017-08-17T01:23:17.322Z,14.66
2017-08-17T01:24:17.936Z,14.63
2017-08-17T01:25:18.592Z,14.66
2017-08-17T01:26:19.205Z,14.66
2017-08-17T01:27:19.823Z,14.66
2017-08-17T01:28:20.445Z,14.65
2017-08-17T01:29:21.068Z,14.73
2017-08-17T01:30:21.714Z,14.78
2017-08-17T01:31:22.366Z,14.66
2017-08-17T01:32:22.981Z,14.81
2017-08-17T01:33:23.602Z,14.63
2017-08-17T01:34:24.217Z,14.69
2017-08-17T01:35:24.835Z,14.65
2017-08-17T01:36:25.457Z,14.62
2017-08-17T01:37:26.120Z,14.60
2017-08-17T01:38:26.768Z,14.45
2017-08-17T01:39:27.384Z,14.53
2017-08-17T01:40:28.000Z,14.55
2017-08-17T01:41:28.620Z,14.48
2017-08-17T01:42:29.270Z,14.45
2017-08-17T01:43:29.892Z,14.40
2017-08-17T01:44:30.507Z,14.33
2017-08-17T01:45:31.122Z,14.36
2017-08-17T01:46:31.772Z,14.32
2017-08-17T01:47:32.687Z,14.30
2017-08-17T01:48:33.304Z,14.23
2017-08-17T01:49:33.953Z,14.26
2017-08-17T01:50:34.573Z,14.29
2017-08-17T01:51:35.187Z,14.20
2017-08-17T01:52:35.803Z,14.20
2017-08-17T01:53:36.420Z,14.23
2017-08-17T01:54:37.042Z,14.33
2017-08-17T01:55:37.661Z,14.23
2017-08-17T01:56:38.274Z,14.20
2017-08-17T01:57:38.890Z,14.17
2017-08-17T01:58:39.505Z,14.17
2017-08-17T01:59:40.125Z,14.20
2017-08-17T02:00:40.776Z,14.15
2017-08-17T02:01:41.424Z,14.15
2017-08-17T02:02:42.042Z,14.20
2017-08-17T02:03:42.674Z,14.18
2017-08-17T02:04:43.288Z,14.20
2017-08-17T02:05:43.896Z,14.18
2017-08-17T02:06:44.517Z,14.20
2017-08-17T02:07:45.128Z,14.25
2017-08-17T02:08:45.743Z,14.17
2017-08-17T02:09:46.396Z,14.17
2017-08-17T02:10:47.007Z,14.32
2017-08-17T02:11:47.625Z,14.22
2017-08-17T02:12:48.248Z,14.12
2017-08-17T02:13:48.860Z,14.28
2017-08-17T02:14:49.477Z,14.26
2017-08-17T02:15:50.092Z,14.11
2017-08-17T02:16:50.741Z,14.30
2017-08-17T02:17:51.355Z,14.18
2017-08-17T02:18:51.972Z,14.23
2017-08-17T02:19:52.589Z,14.23
2017-08-17T02:20:53.208Z,14.22
2017-08-17T02:21:53.859Z,14.17
2017-08-17T02:22:54.509Z,14.17
2017-08-17T02:23:55.126Z,14.18
2017-08-17T02:24:55.741Z,14.20
2017-08-17T02:25:56.357Z,14.17
2017-08-17T02:26:56.977Z,14.22
2017-08-17T02:27:57.628Z,14.17
2017-08-17T02:28:58.240Z,14.15
2017-08-17T02:29:58.861Z,14.26
2017-08-17T02:30:59.474Z,14.23
2017-08-17T02:32:00.090Z,14.18
2017-08-17T02:33:00.707Z,14.18
2017-08-17T02:34:01.326Z,14.17
2017-08-17T02:35:01.945Z,14.25
2017-08-17T02:36:02.556Z,14.17
2017-08-17T02:37:03.173Z,14.25
2017-08-17T02:38:03.788Z,14.22
2017-08-17T02:39:04.409Z,14.30
2017-08-17T02:40:05.064Z,14.18
2017-08-17T02:41:05.677Z,14.28
2017-08-17T02:42:06.298Z,14.18
2017-08-17T02:43:06.908Z,14.18
2017-08-17T02:44:07.528Z,14.18
2017-08-17T02:45:08.141Z,14.20
2017-08-17T02:46:08.763Z,14.14
2017-08-17T02:47:09.377Z,14.12
2017-08-17T02:48:09.994Z,14.17
2017-08-17T02:49:10.608Z,14.15
2017-08-17T02:50:11.225Z,13.93
2017-08-17T02:51:11.846Z,14.04
2017-08-17T02:52:12.463Z,13.95
2017-08-17T02:53:13.078Z,14.08
2017-08-17T02:54:13.698Z,14.10
2017-08-17T02:55:14.311Z,13.99
2017-08-17T02:56:14.925Z,14.03
2017-08-17T02:57:15.539Z,14.07
2017-08-17T02:58:16.155Z,14.12
2017-08-17T02:59:16.768Z,14.14
2017-08-17T03:00:17.385Z,14.10
2017-08-17T03:01:18.035Z,14.11
2017-08-17T03:02:18.654Z,13.99
2017-08-17T03:03:19.308Z,14.10
2017-08-17T03:04:19.959Z,14.05
2017-08-17T03:05:20.586Z,14.07
2017-08-17T03:06:21.252Z,14.04
2017-08-17T03:07:21.887Z,14.07
2017-08-17T03:08:22.498Z,14.10
2017-08-17T03:09:23.114Z,13.97
2017-08-17T03:10:23.766Z,14.07
2017-08-17T03:11:24.380Z,14.05
2017-08-17T03:12:25.028Z,13.99
2017-08-17T03:13:25.644Z,13.97
2017-08-17T03:14:26.259Z,14.03
2017-08-17T03:15:26.874Z,13.96
2017-08-17T03:16:27.492Z,13.97
2017-08-17T03:17:28.113Z,14.00
2017-08-17T03:18:28.725Z,14.00
2017-08-17T03:19:29.340Z,14.03
2017-08-17T03:20:29.989Z,14.10
2017-08-17T03:21:30.645Z,13.95
2017-08-17T03:22:31.293Z,14.00
2017-08-17T03:23:31.958Z,14.05
2017-08-17T03:24:32.572Z,14.07
2017-08-17T03:25:33.187Z,14.07
2017-08-17T03:26:33.803Z,14.07
2017-08-17T03:27:34.420Z,14.07
2017-08-17T03:28:35.086Z,14.07
2017-08-17T03:29:35.701Z,14.15
2017-08-17T03:30:36.317Z,14.04
2017-08-17T03:31:36.939Z,14.00
2017-08-17T03:32:37.552Z,14.08
2017-08-17T03:33:38.172Z,14.08
2017-08-17T03:34:38.820Z,14.05
2017-08-17T03:35:39.442Z,14.10
2017-08-17T03:36:40.053Z,14.00
2017-08-17T03:37:40.669Z,14.10
2017-08-17T03:38:41.284Z,14.08
2017-08-17T03:39:41.899Z,14.07
2017-08-17T03:40:42.518Z,14.08
2017-08-17T03:41:43.170Z,14.00
2017-08-17T03:42:43.818Z,14.03
2017-08-17T03:43:44.440Z,14.04
2017-08-17T03:44:45.054Z,14.04
2017-08-17T03:45:45.669Z,13.96
2017-08-17T03:46:46.286Z,14.03
2017-08-17T03:47:46.901Z,13.90
2017-08-17T03:48:47.521Z,13.90
2017-08-17T03:49:48.140Z,13.95
2017-08-17T03:50:48.756Z,13.89
2017-08-17T03:51:49.369Z,13.86
2017-08-17T03:52:49.989Z,13.92
2017-08-17T03:53:50.608Z,13.89
2017-08-17T03:54:51.226Z,13.83
2017-08-17T03:55:51.837Z,13.90
2017-08-17T03:56:52.454Z,13.78
2017-08-17T03:57:53.072Z,13.89
2017-08-17T03:58:53.736Z,13.83
2017-08-17T03:59:54.351Z,13.74
2017-08-17T04:00:54.967Z,13.81
2017-08-17T04:01:55.587Z,13.83
2017-08-17T04:02:56.235Z,13.78
2017-08-17T04:03:56.858Z,13.75
2017-08-17T04:04:57.508Z,13.74
2017-08-17T04:05:58.124Z,13.81
2017-08-17T04:06:58.738Z,13.74
2017-08-17T04:07:59.358Z,13.79
2017-08-17T04:09:00.058Z,13.71
2017-08-17T04:10:00.671Z,13.71
2017-08-17T04:11:01.287Z,13.79
2017-08-17T04:12:01.909Z,13.81
2017-08-17T04:13:02.522Z,13.78
2017-08-17T04:14:03.188Z,13.74
2017-08-17T04:15:03.803Z,13.63
2017-08-17T04:16:04.418Z,13.72
2017-08-17T04:17:05.033Z,13.70
2017-08-17T04:18:05.654Z,13.71
2017-08-17T04:19:06.273Z,13.63
2017-08-17T04:20:06.885Z,13.67
2017-08-17T04:21:07.502Z,13.54
2017-08-17T04:22:08.117Z,13.57
2017-08-17T04:23:08.736Z,13.62
2017-08-17T04:24:09.349Z,13.56
2017-08-17T04:25:09.969Z,13.59
2017-08-17T04:26:10.586Z,13.56
2017-08-17T04:27:11.199Z,13.54
2017-08-17T04:28:11.815Z,13.47
2017-08-17T04:29:12.512Z,13.62
2017-08-17T04:30:13.126Z,13.56
2017-08-17T04:31:13.747Z,13.59
2017-08-17T04:32:14.361Z,13.57
2017-08-17T04:33:14.982Z,13.53
2017-08-17T04:34:15.594Z,13.59
2017-08-17T04:35:16.210Z,13.57
2017-08-17T04:36:16.829Z,13.59
2017-08-17T04:37:17.440Z,13.60
2017-08-17T04:38:18.053Z,13.63
2017-08-17T04:39:18.676Z,13.56
2017-08-17T04:40:19.293Z,13.59
2017-08-17T04:41:19.905Z,13.57
2017-08-17T04:42:20.521Z,13.59
2017-08-17T04:43:21.137Z,13.56
2017-08-17T04:44:21.756Z,13.62
2017-08-17T04:45:22.364Z,13.54
2017-08-17T04:46:22.982Z,13.42
2017-08-17T04:47:23.602Z,13.57
2017-08-17T04:48:24.222Z,13.62
2017-08-17T04:49:24.835Z,13.56
2017-08-17T04:50:25.452Z,13.59
2017-08-17T04:51:26.079Z,13.59
2017-08-17T04:52:26.695Z,13.63
2017-08-17T04:53:27.309Z,13.57
2017-08-17T04:54:27.925Z,13.62
2017-08-17T04:55:28.540Z,13.54
2017-08-17T04:56:29.156Z,13.57
2017-08-17T04:57:29.773Z,13.49
2017-08-17T04:58:30.397Z,13.53
2017-08-17T04:59:31.017Z,13.60
2017-08-17T05:00:31.630Z,13.53
2017-08-17T05:01:32.245Z,13.65
2017-08-17T05:02:32.860Z,13.57
2017-08-17T05:03:33.476Z,13.57
2017-08-17T05:04:34.156Z,13.62
2017-08-17T05:05:34.769Z,13.65
2017-08-17T05:06:35.391Z,13.62
2017-08-17T05:07:36.003Z,13.65
2017-08-17T05:08:36.618Z,13.65
2017-08-17T05:09:37.233Z,13.67
2017-08-17T05:10:37.856Z,13.60
2017-08-17T05:11:38.474Z,13.63
2017-08-17T05:12:39.087Z,13.70
2017-08-17T05:13:39.712Z,13.67
2017-08-17T05:14:40.375Z,13.70
2017-08-17T05:15:40.991Z,13.63
2017-08-17T05:16:41.639Z,13.63
2017-08-17T05:17:42.256Z,13.65
2017-08-17T05:18:42.871Z,13.63
2017-08-17T05:19:43.489Z,13.74
2017-08-17T05:20:44.106Z,13.67
2017-08-17T05:21:44.756Z,13.67
2017-08-17T05:22:45.407Z,13.65
2017-08-17T05:23:46.023Z,13.65
2017-08-17T05:24:46.645Z,13.68
2017-08-17T05:25:47.263Z,13.68
2017-08-17T05:26:47.879Z,13.65
2017-08-17T05:27:48.525Z,13.67
2017-08-17T05:28:49.140Z,13.71
2017-08-17T05:29:49.758Z,13.68
2017-08-17T05:30:50.377Z,13.67
2017-08-17T05:31:50.992Z,13.70
2017-08-17T05:32:51.609Z,13.65
2017-08-17T05:33:52.231Z,13.67
2017-08-17T05:34:52.841Z,13.59
2017-08-17T05:35:53.457Z,13.59
2017-08-17T05:36:54.080Z,13.68
2017-08-17T05:37:54.698Z,13.59
2017-08-17T05:38:55.311Z,13.68
2017-08-17T05:39:55.928Z,13.67
2017-08-17T05:40:56.544Z,13.78
2017-08-17T05:41:57.167Z,13.68
2017-08-17T05:42:57.782Z,13.71
2017-08-17T05:43:58.430Z,13.74
2017-08-17T05:44:59.051Z,13.68
2017-08-17T05:45:59.666Z,13.70
2017-08-17T05:47:00.291Z,13.65
2017-08-17T05:48:00.908Z,13.77
2017-08-17T05:49:01.691Z,13.71
2017-08-17T05:50:02.946Z,13.71
2017-08-17T05:51:04.043Z,13.62
2017-08-17T05:52:06.188Z,13.71
2017-08-17T05:53:07.491Z,13.78
2017-08-17T05:54:08.683Z,13.81
2017-08-17T05:55:56.166Z,13.78
2017-08-17T05:56:56.775Z,13.81
2017-08-17T05:57:57.389Z,13.77
2017-08-17T05:58:58.004Z,13.86
2017-08-17T05:59:58.624Z,13.79
2017-08-17T06:00:59.241Z,13.90
2017-08-17T06:01:59.892Z,13.87
2017-08-17T06:03:00.508Z,13.96
2017-08-17T06:04:01.126Z,13.96
2017-08-17T06:05:01.746Z,13.85
2017-08-17T06:06:02.359Z,13.96
2017-08-17T06:07:02.976Z,13.95
2017-08-17T06:08:03.599Z,14.05
2017-08-17T06:09:04.214Z,14.12
2017-08-17T06:10:04.830Z,14.11
2017-08-17T06:11:05.447Z,14.22
2017-08-17T06:12:06.062Z,14.20
2017-08-17T06:13:06.713Z,14.22
2017-08-17T06:14:07.331Z,14.22
2017-08-17T06:15:07.955Z,14.23
2017-08-17T06:16:08.620Z,14.37
2017-08-17T06:17:09.235Z,14.32
2017-08-17T06:18:09.852Z,14.36
2017-08-17T06:19:10.475Z,14.51
2017-08-17T06:20:11.088Z,14.45
2017-08-17T06:21:11.756Z,14.55
2017-08-17T06:22:12.377Z,14.48
2017-08-17T06:23:13.023Z,14.63
2017-08-17T06:24:13.639Z,14.55
2017-08-17T06:25:14.257Z,14.65
2017-08-17T06:26:14.959Z,14.66
2017-08-17T06:27:15.573Z,14.70
2017-08-17T06:28:16.189Z,14.73
2017-08-17T06:29:16.805Z,14.66
2017-08-17T06:30:17.421Z,14.72
2017-08-17T06:31:18.039Z,14.79
2017-08-17T06:32:18.657Z,14.79
2017-08-17T06:33:19.275Z,14.72
2017-08-17T06:34:19.927Z,14.78
2017-08-17T06:35:20.548Z,14.79
2017-08-17T06:36:21.214Z,14.79
2017-08-17T06:37:21.840Z,14.89
2017-08-17T06:38:22.457Z,14.89
2017-08-17T06:39:23.073Z,14.88
2017-08-17T06:40:23.696Z,14.96
2017-08-17T06:41:24.346Z,14.91
2017-08-17T06:42:24.965Z,14.96
2017-08-17T06:43:25.589Z,15.02
2017-08-17T06:44:26.204Z,15.09
2017-08-17T06:45:26.823Z,15.02
2017-08-17T06:46:27.442Z,15.03
2017-08-17T06:47:28.065Z,15.04
2017-08-17T06:48:28.682Z,15.04
2017-08-17T06:49:29.298Z,14.97
2017-08-17T06:50:29.917Z,15.04
2017-08-17T06:51:30.533Z,15.10
2017-08-17T06:52:31.150Z,15.14
2017-08-17T06:53:31.768Z,15.11
2017-08-17T06:54:32.386Z,15.11
2017-08-17T06:55:33.003Z,15.14
2017-08-17T06:56:33.622Z,15.10
2017-08-17T06:57:34.244Z,15.09
2017-08-17T06:58:34.864Z,15.15
2017-08-17T06:59:35.481Z,15.24
2017-08-17T07:00:36.107Z,15.22
2017-08-17T07:01:36.723Z,15.17
2017-08-17T07:02:37.340Z,15.21
2017-08-17T07:03:37.959Z,15.33
2017-08-17T07:04:38.586Z,15.25
2017-08-17T07:05:39.219Z,15.40
2017-08-17T07:06:39.863Z,15.44
2017-08-17T07:07:40.477Z,15.47
2017-08-17T07:08:41.096Z,15.52
2017-08-17T07:09:41.716Z,15.49
2017-08-17T07:10:42.333Z,15.47
2017-08-17T07:11:42.951Z,15.49
2017-08-17T07:12:43.573Z,15.57
2017-08-17T07:13:44.222Z,15.59
2017-08-17T07:14:44.841Z,15.64
2017-08-17T07:15:45.459Z,15.70
2017-08-17T07:16:46.078Z,15.67
2017-08-17T07:17:46.696Z,15.77
2017-08-17T07:18:47.319Z,15.73
2017-08-17T07:19:47.935Z,15.75
2017-08-17T07:20:48.555Z,15.75
2017-08-17T07:21:49.223Z,15.72
2017-08-17T07:22:49.843Z,15.82
2017-08-17T07:23:50.469Z,15.83
2017-08-17T07:24:51.086Z,15.83
2017-08-17T07:25:51.703Z,15.86
2017-08-17T07:26:52.322Z,15.82
2017-08-17T07:27:52.941Z,16.00
2017-08-17T07:28:53.564Z,15.92
2017-08-17T07:29:54.183Z,16.09
2017-08-17T07:30:54.806Z,16.02
2017-08-17T07:31:55.423Z,16.09
2017-08-17T07:32:56.041Z,16.15
2017-08-17T07:33:56.668Z,16.15
2017-08-17T07:34:57.284Z,16.21
2017-08-17T07:35:57.906Z,16.20
2017-08-17T07:36:58.529Z,16.15
2017-08-17T07:37:59.146Z,16.26
2017-08-17T07:38:59.768Z,16.13
2017-08-17T07:40:00.385Z,16.21
2017-08-17T07:41:01.042Z,16.24
2017-08-17T07:42:01.663Z,16.32
2017-08-17T07:43:02.278Z,16.28
2017-08-17T07:44:02.897Z,16.23
2017-08-17T07:45:03.520Z,16.23
2017-08-17T07:46:04.138Z,16.33
2017-08-17T07:47:04.758Z,16.39
2017-08-17T07:48:05.381Z,16.38
2017-08-17T07:49:05.998Z,16.33
2017-08-17T07:50:06.657Z,16.42
2017-08-17T07:51:07.273Z,16.51
2017-08-17T07:52:07.894Z,16.46
2017-08-17T07:53:08.518Z,16.46
2017-08-17T07:54:09.136Z,16.41
2017-08-17T07:55:09.756Z,16.53
2017-08-17T07:56:10.377Z,16.42
2017-08-17T07:57:11.032Z,16.60
2017-08-17T07:58:11.650Z,16.61
2017-08-17T07:59:12.272Z,16.57
2017-08-17T08:00:12.921Z,16.60
2017-08-17T08:01:13.542Z,16.58
2017-08-17T08:02:14.196Z,16.60
2017-08-17T08:03:14.817Z,16.54
2017-08-17T08:04:15.438Z,16.68
2017-08-17T08:05:16.057Z,16.69
2017-08-17T08:06:16.709Z,16.75
2017-08-17T08:07:17.342Z,16.75
2017-08-17T08:08:17.997Z,16.87
2017-08-17T08:09:18.608Z,16.81
2017-08-17T08:10:19.229Z,16.93
2017-08-17T08:11:19.882Z,16.96
2017-08-17T08:12:20.502Z,16.99
2017-08-17T08:13:21.121Z,17.01
2017-08-17T08:14:21.781Z,17.02
2017-08-17T08:15:22.433Z,17.06
2017-08-17T08:16:23.047Z,17.14
2017-08-17T08:17:23.669Z,17.19
2017-08-17T08:18:24.289Z,17.24
2017-08-17T08:19:24.913Z,17.23
2017-08-17T08:20:25.529Z,17.26
2017-08-17T08:21:26.148Z,17.16
2017-08-17T08:22:26.768Z,17.24
2017-08-17T08:23:27.394Z,17.29
2017-08-17T08:24:28.050Z,17.23
2017-08-17T08:25:28.700Z,17.20
2017-08-17T08:26:29.320Z,17.26
2017-08-17T08:27:29.951Z,17.22
2017-08-17T08:28:30.563Z,17.33
2017-08-17T08:29:31.189Z,17.41
2017-08-17T08:30:31.806Z,17.42
2017-08-17T08:31:32.430Z,17.54
2017-08-17T08:32:33.349Z,17.49
2017-08-17T08:33:33.976Z,17.56
2017-08-17T08:34:34.593Z,17.49
2017-08-17T08:35:35.219Z,17.67
2017-08-17T08:36:35.835Z,17.64
2017-08-17T08:37:36.487Z,17.74
2017-08-17T08:38:37.112Z,17.80
2017-08-17T08:39:37.732Z,17.87
2017-08-17T08:40:38.357Z,17.87
2017-08-17T08:41:38.974Z,17.95
2017-08-17T08:42:39.845Z,17.95
2017-08-17T08:43:40.467Z,17.97
2017-08-17T08:44:41.092Z,17.87
2017-08-17T08:45:41.716Z,17.79
2017-08-17T08:46:42.338Z,17.70
2017-08-17T08:47:42.958Z,17.60
2017-08-17T08:48:43.577Z,17.65
2017-08-17T08:49:44.198Z,17.64
2017-08-17T08:50:44.824Z,17.70
2017-08-17T08:51:45.440Z,17.68
2017-08-17T08:52:46.062Z,17.71
2017-08-17T08:53:46.716Z,17.70
2017-08-17T08:54:47.342Z,17.74
2017-08-17T08:55:47.960Z,17.79
2017-08-17T08:56:48.581Z,17.90
2017-08-17T08:57:49.202Z,18.03
2017-08-17T08:58:49.829Z,18.10
2017-08-17T08:59:50.448Z,18.07
2017-08-17T09:00:51.072Z,18.11
2017-08-17T09:01:51.689Z,18.01
2017-08-17T09:02:52.311Z,18.08
2017-08-17T09:03:52.935Z,18.07
2017-08-17T09:04:53.560Z,18.13
2017-08-17T09:05:54.177Z,18.05
2017-08-17T09:06:54.805Z,18.20
2017-08-17T09:07:55.428Z,18.37
2017-08-17T09:08:56.050Z,18.38
2017-08-17T09:09:56.666Z,18.47
2017-08-17T09:10:57.288Z,18.53
2017-08-17T09:11:57.922Z,18.55
2017-08-17T09:12:58.534Z,18.47
2017-08-17T09:13:59.154Z,18.45
2017-08-17T09:14:59.813Z,18.59
2017-08-17T09:16:00.429Z,18.59
2017-08-17T09:17:01.056Z,18.65
2017-08-17T09:18:01.700Z,18.74
2017-08-17T09:19:02.307Z,18.75
2017-08-17T09:20:02.954Z,18.74
2017-08-17T09:21:03.580Z,18.74
2017-08-17T09:22:04.202Z,18.73
2017-08-17T09:23:04.879Z,18.65
2017-08-17T09:24:05.493Z,18.65
2017-08-17T09:25:06.115Z,18.63
2017-08-17T09:26:06.771Z,18.59
2017-08-17T09:27:07.398Z,18.60
2017-08-17T09:28:08.016Z,18.71
2017-08-17T09:29:08.640Z,18.80
2017-08-17T09:30:09.264Z,18.92
2017-08-17T09:31:09.887Z,18.89
2017-08-17T09:32:10.503Z,18.88
2017-08-17T09:33:11.166Z,18.88
2017-08-17T09:34:11.785Z,18.93
2017-08-17T09:35:12.407Z,18.95
2017-08-17T09:36:13.033Z,18.90
2017-08-17T09:37:13.658Z,18.93
2017-08-17T09:38:14.333Z,18.86
2017-08-17T09:39:14.959Z,18.83
2017-08-17T09:40:15.580Z,18.93
2017-08-17T09:41:16.208Z,18.92
2017-08-17T09:42:16.831Z,18.96
2017-08-17T09:43:17.701Z,18.99
2017-08-17T09:44:18.325Z,19.18
2017-08-17T09:45:18.952Z,19.31
2017-08-17T09:46:19.571Z,19.31
2017-08-17T09:47:20.231Z,19.51
2017-08-17T09:48:20.848Z,19.63
2017-08-17T09:49:21.469Z,19.92
2017-08-17T09:50:22.102Z,19.94
2017-08-17T09:51:22.724Z,19.89
2017-08-17T09:52:23.340Z,19.63
2017-08-17T09:53:23.964Z,19.63
2017-08-17T09:54:24.592Z,19.59
2017-08-17T09:55:25.213Z,19.69
2017-08-17T09:56:25.840Z,19.70
2017-08-17T09:57:26.466Z,19.67
2017-08-17T09:58:27.386Z,19.55
2017-08-17T09:59:28.008Z,19.59
2017-08-17T10:00:28.630Z,19.76
2017-08-17T10:01:29.251Z,19.82
2017-08-17T10:02:29.876Z,19.79
2017-08-17T10:03:30.498Z,19.81
2017-08-17T10:04:31.122Z,19.89
2017-08-17T10:05:31.745Z,19.92
2017-08-17T10:06:32.367Z,19.94
2017-08-17T10:07:32.993Z,19.95
2017-08-17T10:08:33.663Z,19.91
2017-08-17T10:09:34.289Z,19.94
2017-08-17T10:10:34.911Z,20.04
2017-08-17T10:11:35.533Z,20.16
2017-08-17T10:12:36.155Z,20.22
2017-08-17T10:13:36.777Z,20.34
2017-08-17T10:14:37.403Z,20.48
2017-08-17T10:15:38.023Z,20.39
2017-08-17T10:16:38.645Z,20.44
2017-08-17T10:17:39.267Z,20.52
2017-08-17T10:18:39.938Z,20.43
2017-08-17T10:19:40.562Z,20.37
2017-08-17T10:20:41.184Z,20.44
2017-08-17T10:21:41.806Z,20.47
2017-08-17T10:22:42.429Z,20.50
2017-08-17T10:23:43.104Z,20.56
2017-08-17T10:24:43.727Z,20.65
2017-08-17T10:25:44.352Z,20.81
2017-08-17T10:26:44.973Z,20.88
2017-08-17T10:27:45.596Z,20.92
2017-08-17T10:28:46.223Z,20.82
2017-08-17T10:29:46.842Z,20.77
2017-08-17T10:30:47.463Z,20.87
2017-08-17T10:31:48.085Z,20.92
2017-08-17T10:32:48.709Z,20.97
2017-08-17T10:33:49.587Z,21.02
2017-08-17T10:34:50.215Z,21.03
2017-08-17T10:35:50.835Z,21.03
2017-08-17T10:36:51.458Z,21.21
2017-08-17T10:37:52.083Z,21.39
2017-08-17T10:38:52.705Z,21.54
2017-08-17T10:39:53.329Z,21.61
2017-08-17T10:40:53.956Z,21.80
2017-08-17T10:41:54.579Z,21.66
2017-08-17T10:42:55.202Z,21.77
2017-08-17T10:43:55.874Z,21.76
2017-08-17T10:44:56.501Z,21.69
2017-08-17T10:45:57.123Z,21.60
2017-08-17T10:46:57.751Z,21.54
2017-08-17T10:47:58.372Z,21.48
2017-08-17T10:48:59.001Z,21.51
2017-08-17T10:49:59.632Z,21.57
2017-08-17T10:51:00.252Z,21.66
2017-08-17T10:52:00.875Z,21.67
2017-08-17T10:53:01.532Z,21.70
2017-08-17T10:54:02.163Z,21.92
2017-08-17T10:55:02.789Z,21.95
2017-08-17T10:56:03.451Z,21.92
2017-08-17T10:57:04.078Z,21.80
2017-08-17T10:58:04.705Z,21.69
2017-08-17T10:59:05.329Z,21.57
2017-08-17T11:00:05.954Z,21.54
2017-08-17T11:01:06.579Z,21.51
2017-08-17T11:02:07.203Z,21.51
2017-08-17T11:03:07.834Z,21.57
2017-08-17T11:04:08.544Z,21.55
2017-08-17T11:05:09.169Z,21.62
2017-08-17T11:06:09.798Z,21.54
2017-08-17T11:07:10.422Z,21.32
2017-08-17T11:08:11.048Z,21.24
2017-08-17T11:09:11.674Z,21.24
2017-08-17T11:10:12.298Z,21.29
2017-08-17T11:11:12.956Z,21.51
2017-08-17T11:12:13.584Z,21.64
2017-08-17T11:13:14.208Z,21.69
2017-08-17T11:14:14.843Z,21.66
2017-08-17T11:15:15.461Z,21.58
2017-08-17T11:16:16.087Z,21.69
2017-08-17T11:17:16.718Z,21.80
2017-08-17T11:18:17.340Z,21.92
2017-08-17T11:19:17.996Z,21.87
2017-08-17T11:20:18.620Z,21.80
2017-08-17T11:21:19.248Z,21.92
2017-08-17T11:22:19.908Z,22.10
2017-08-17T11:23:20.532Z,22.10
2017-08-17T11:24:21.158Z,22.13
2017-08-17T11:25:21.783Z,22.13
2017-08-17T11:26:22.408Z,22.13
2017-08-17T11:27:23.034Z,22.26
2017-08-17T11:28:23.691Z,22.35
2017-08-17T11:29:24.318Z,22.41
2017-08-17T11:30:24.943Z,22.44
2017-08-17T11:31:25.573Z,22.44
2017-08-17T11:32:26.195Z,22.47
2017-08-17T11:33:26.852Z,22.48
2017-08-17T11:34:27.477Z,22.43
2017-08-17T11:35:28.109Z,22.47
2017-08-17T11:36:28.771Z,22.48
2017-08-17T11:37:29.398Z,22.43
2017-08-17T11:38:30.025Z,22.53
2017-08-17T11:39:30.649Z,22.54
2017-08-17T11:40:31.280Z,22.65
2017-08-17T11:41:31.903Z,22.69
2017-08-17T11:42:32.536Z,22.70
2017-08-17T11:43:33.162Z,22.78
2017-08-17T11:44:33.787Z,22.81
2017-08-17T11:45:34.414Z,22.94
2017-08-17T11:46:35.040Z,22.88
2017-08-17T11:47:35.663Z,22.75
2017-08-17T11:48:36.290Z,22.73
2017-08-17T11:49:36.916Z,22.65
2017-08-17T11:50:37.542Z,22.75
2017-08-17T11:51:38.200Z,22.84
2017-08-17T11:52:38.826Z,23.03
2017-08-17T11:53:39.452Z,23.18
2017-08-17T11:54:40.079Z,23.32
2017-08-17T11:55:40.707Z,23.41
2017-08-17T11:56:41.331Z,23.51
2017-08-17T11:57:41.959Z,23.59
2017-08-17T11:58:42.586Z,23.68
2017-08-17T11:59:43.214Z,23.58
2017-08-17T12:00:43.842Z,23.50
2017-08-17T12:01:44.473Z,23.37
2017-08-17T12:02:45.103Z,23.24
2017-08-17T12:03:45.726Z,23.21
2017-08-17T12:04:46.355Z,23.28
2017-08-17T12:05:46.984Z,23.27
2017-08-17T12:06:47.613Z,23.37
2017-08-17T12:07:48.241Z,23.56
2017-08-17T12:08:48.866Z,23.84
2017-08-17T12:09:49.492Z,23.86
2017-08-17T12:10:50.116Z,23.87
2017-08-17T12:11:50.749Z,23.88
2017-08-17T12:12:51.373Z,24.01
2017-08-17T12:13:52.003Z,24.05
2017-08-17T12:14:52.929Z,24.13
2017-08-17T12:15:53.554Z,24.06
2017-08-17T12:16:54.179Z,23.88
2017-08-17T12:17:54.811Z,23.68
2017-08-17T12:18:55.436Z,23.54
2017-08-17T12:19:56.363Z,23.47
2017-08-17T12:20:56.997Z,23.43
2017-08-17T12:21:57.622Z,23.50
2017-08-17T12:22:58.283Z,23.51
2017-08-17T12:23:58.909Z,23.47
2017-08-17T12:24:59.534Z,23.51
2017-08-17T12:26:00.163Z,23.51
2017-08-17T12:27:00.791Z,23.61
2017-08-17T12:28:01.418Z,23.65
2017-08-17T12:29:02.045Z,23.74
2017-08-17T12:30:02.728Z,23.76
2017-08-17T12:31:03.350Z,23.80
2017-08-17T12:32:03.976Z,23.78
2017-08-17T12:33:04.602Z,23.83
2017-08-17T12:34:05.229Z,23.91
2017-08-17T12:35:05.856Z,23.87
2017-08-17T12:36:06.489Z,23.66
2017-08-17T12:37:07.113Z,23.39
2017-08-17T12:38:07.749Z,23.31
2017-08-17T12:39:08.404Z,23.27
2017-08-17T12:40:09.027Z,23.37
2017-08-17T12:41:09.653Z,23.44
2017-08-17T12:42:10.283Z,23.69
2017-08-17T12:43:10.909Z,23.77
2017-08-17T12:44:11.536Z,23.84
2017-08-17T12:45:12.195Z,23.84
2017-08-17T12:46:12.826Z,23.87
2017-08-17T12:47:13.447Z,23.73
2017-08-17T12:48:14.072Z,23.56
2017-08-17T12:49:14.699Z,23.68
2017-08-17T12:50:15.627Z,23.87
2017-08-17T12:51:16.251Z,23.93
2017-08-17T12:52:16.888Z,24.03
2017-08-17T12:53:17.547Z,24.06
2017-08-17T12:54:18.179Z,24.18
2017-08-17T12:55:19.106Z,24.40
2017-08-17T12:56:19.731Z,24.54
2017-08-17T12:57:20.360Z,24.57
2017-08-17T12:58:20.986Z,24.66
2017-08-17T12:59:21.633Z,24.53
2017-08-17T13:00:22.541Z,24.42
2017-08-17T13:01:23.175Z,24.42